Time;durP1;ratioP1;P1;durP2;ratioP2;P2;SDS_P1;SDS_P2;PMS_P1;PMS_P2;Temp;Humidity;BMP_temperature;BMP_pressure;BME280_temperature;BME280_humidity;BME280_pressure;Samples;Min_cycle;Max_cycle;Signal;HPM_P1;HPM_P2
2023/01/17 11:28:21;;;;;;;9.37;8.70;;;6.90;18.50;;;;;;5028792;28;20447;-77
2023/01/17 11:30:51;;;;;;;7.90;7.60;;;7.10;19.80;;;;;;5028326;28;20845;-75
2023/01/17 11:33:44;;;;;;;8.47;8.07;;;7.30;20.00;;;;;;4994670;28;20427;-75
2023/01/17 11:36:27;;;;;;;7.93;7.53;;;7.50;18.50;;;;;;5012321;28;20477;-74
2023/01/17 11:39:16;;;;;;;9.13;8.70;;;7.50;18.80;;;;;;5012817;28;20419;-76
2023/01/17 11:41:43;;;;;;;8.03;7.73;;;7.60;18.00;;;;;;5009807;28;20413;-76
2023/01/17 11:44:25;;;;;;;9.13;8.73;;;7.50;17.60;;;;;;5013230;28;20487;-76
2023/01/17 11:47:18;;;;;;;8.67;8.27;;;7.60;17.60;;;;;;5013087;28;20428;-76
2023/01/17 11:49:46;;;;;;;8.63;7.93;;;7.50;17.40;;;;;;5005079;28;20432;-76
2023/01/17 11:52:21;;;;;;;7.63;7.23;;;7.40;17.60;;;;;;5011678;28;20412;-77
2023/01/17 11:54:48;;;;;;;8.70;8.27;;;7.30;17.20;;;;;;5012975;28;20388;-77
2023/01/17 11:57:24;;;;;;;9.20;8.60;;;7.30;17.60;;;;;;4995692;28;20408;-76
2023/01/17 12:00:13;;;;;;;7.77;7.37;;;7.30;17.30;;;;;;5012669;28;20926;-76
2023/01/17 12:02:53;;;;;;;8.30;8.00;;;7.30;16.80;;;;;;5011198;28;20460;-76
2023/01/17 12:05:30;;;;;;;9.10;8.60;;;7.10;17.20;;;;;;5012661;28;20426;-76
2023/01/17 12:08:01;;;;;;;8.27;7.87;;;7.20;16.60;;;;;;5013114;28;20415;-77
2023/01/17 12:10:45;;;;;;;8.23;7.80;;;7.20;17.00;;;;;;5013060;28;20471;-76
2023/01/17 12:14:00;;;;;;;7.67;7.30;;;7.10;16.90;;;;;;5012405;28;20401;-76
2023/01/17 12:17:02;;;;;;;7.77;7.27;;;7.30;17.40;;;;;;4992473;28;20800;-75
2023/01/17 12:19:37;;;;;;;7.77;7.47;;;7.40;16.80;;;;;;4998000;28;20471;-76
2023/01/17 12:22:45;;;;;;;8.70;8.17;;;7.60;17.90;;;;;;5012272;28;20832;-76
2023/01/17 12:25:27;;;;;;;8.33;7.73;;;7.70;17.00;;;;;;5010039;28;20443;-76
2023/01/17 12:28:14;;;;;;;8.30;8.10;;;7.70;16.40;;;;;;5012955;28;20925;-76
2023/01/17 12:31:04;;;;;;;8.90;8.50;;;7.60;16.00;;;;;;5012607;28;20503;-76
2023/01/17 12:33:49;;;;;;;8.67;8.03;;;7.50;15.90;;;;;;5012259;28;20517;-76
2023/01/17 12:36:38;;;;;;;8.43;8.00;;;7.50;15.90;;;;;;5010782;28;20510;-76
2023/01/17 12:39:10;;;;;;;9.90;9.43;;;7.40;16.60;;;;;;4993237;28;20474;-76
2023/01/17 12:41:59;;;;;;;9.80;8.90;;;7.30;16.00;;;;;;5011612;28;20510;-76
2023/01/17 12:44:56;;;;;;;8.50;8.10;;;7.40;16.50;;;;;;5001100;28;21008;-76
2023/01/17 12:47:22;;;;;;;8.23;7.93;;;7.40;16.80;;;;;;5012509;28;20413;-77
2023/01/17 12:50:17;;;;;;;8.00;7.70;;;7.60;17.70;;;;;;4994788;28;20507;-76
2023/01/17 12:53:01;;;;;;;17.57;15.93;;;7.70;15.70;;;;;;4991977;28;20429;-76
2023/01/17 12:55:52;;;;;;;8.53;8.13;;;7.80;15.30;;;;;;4992574;28;20433;-75
2023/01/17 12:58:24;;;;;;;8.80;8.40;;;7.70;15.90;;;;;;4975594;28;20561;-76
2023/01/17 13:01:13;;;;;;;8.20;7.80;;;7.90;15.60;;;;;;4992997;28;20413;-76
2023/01/17 13:04:02;;;;;;;7.73;7.40;;;7.80;15.50;;;;;;4978076;28;20846;-74
2023/01/17 13:06:40;;;;;;;7.90;7.60;;;7.80;15.60;;;;;;4996716;28;20544;-76
2023/01/17 13:09:08;;;;;;;8.27;7.90;;;7.90;15.30;;;;;;4996357;28;20487;-76
2023/01/17 13:11:45;;;;;;;7.43;7.13;;;8.00;16.30;;;;;;4995918;28;20409;-74
2023/01/17 13:14:11;;;;;;;7.97;7.57;;;8.10;15.40;;;;;;4978828;28;20425;-76
2023/01/17 13:16:48;;;;;;;8.17;7.67;;;8.10;15.80;;;;;;4996543;28;20444;-75
2023/01/17 13:19:51;;;;;;;7.50;7.20;;;8.00;15.60;;;;;;5001323;28;20189;-75
2023/01/17 13:22:18;;;;;;;8.30;7.87;;;8.10;15.20;;;;;;5013357;28;20417;-75
2023/01/17 13:24:55;;;;;;;7.33;7.10;;;8.10;15.60;;;;;;5009574;28;20417;-74
2023/01/17 13:27:34;;;;;;;8.17;7.80;;;7.90;15.10;;;;;;5007138;28;20424;-74
2023/01/17 13:30:10;;;;;;;8.27;7.67;;;7.90;15.70;;;;;;5006245;28;20389;-75
2023/01/17 13:32:50;;;;;;;7.23;6.93;;;7.70;15.90;;;;;;4996916;28;20516;-76
2023/01/17 13:35:26;;;;;;;7.80;7.40;;;7.70;16.00;;;;;;4996523;28;20462;-75
2023/01/17 13:38:08;;;;;;;7.53;7.23;;;7.80;15.50;;;;;;4996242;28;20908;-75
2023/01/17 13:40:49;;;;;;;7.33;6.93;;;8.00;15.40;;;;;;4995513;28;20417;-75
2023/01/17 13:43:24;;;;;;;8.60;8.20;;;8.00;15.50;;;;;;4995613;28;20781;-76
2023/01/17 13:45:56;;;;;;;7.63;7.23;;;7.80;15.40;;;;;;4978174;28;20448;-77
2023/01/17 13:48:22;;;;;;;7.93;7.53;;;7.80;16.30;;;;;;4995478;28;20413;-75
2023/01/17 13:50:59;;;;;;;7.03;6.83;;;7.80;15.40;;;;;;4995554;28;20467;-76
2023/01/17 13:53:27;;;;;;;7.47;7.07;;;7.80;15.50;;;;;;4995191;28;20174;-76
2023/01/17 13:56:11;;;;;;;7.83;7.23;;;7.60;15.30;;;;;;4995541;28;20433;-75
2023/01/17 13:58:53;;;;;;;7.03;6.73;;;7.60;15.80;;;;;;4995584;28;20428;-75
2023/01/17 14:01:22;;;;;;;7.47;7.07;;;7.60;15.20;;;;;;4995402;28;20925;-76
2023/01/17 14:03:53;;;;;;;7.00;6.60;;;7.60;15.10;;;;;;4995456;28;20958;-75
2023/01/17 14:06:37;;;;;;;6.40;6.20;;;7.60;15.50;;;;;;4995343;28;20429;-75
2023/01/17 14:09:11;;;;;;;7.00;6.80;;;7.50;14.90;;;;;;4995476;28;20413;-76
2023/01/17 14:12:12;;;;;;;7.60;7.27;;;7.50;15.00;;;;;;4995165;28;20405;-76
2023/01/17 14:14:43;;;;;;;7.00;6.80;;;7.40;14.10;;;;;;4992649;28;20433;-76
2023/01/17 14:17:27;;;;;;;6.80;6.60;;;7.40;14.70;;;;;;4995349;28;20751;-76
2023/01/17 14:19:54;;;;;;;8.07;7.67;;;7.50;14.80;;;;;;4993775;28;20453;-76
2023/01/17 14:22:20;;;;;;;7.50;7.20;;;7.50;14.60;;;;;;4994635;28;20413;-76
2023/01/17 14:25:08;;;;;;;7.77;7.47;;;7.70;14.90;;;;;;4994120;28;20428;-75
2023/01/17 14:27:44;;;;;;;8.33;7.73;;;7.90;14.30;;;;;;4994970;28;20190;-76
2023/01/17 14:30:16;;;;;;;9.80;9.30;;;7.90;14.30;;;;;;4977627;28;20413;-76
2023/01/17 14:32:59;;;;;;;8.37;8.07;;;7.80;14.50;;;;;;4994559;28;20846;-77
2023/01/17 14:35:39;;;;;;;8.17;7.77;;;8.00;14.80;;;;;;4994656;28;20443;-75
2023/01/17 14:38:25;;;;;;;8.00;7.70;;;8.00;14.40;;;;;;4995034;28;20471;-75
2023/01/17 14:41:06;;;;;;;7.37;7.07;;;8.00;14.40;;;;;;4994804;28;20496;-75
2023/01/17 14:43:35;;;;;;;8.67;8.37;;;8.00;14.40;;;;;;4993252;28;20483;-75
2023/01/17 14:46:27;;;;;;;7.70;7.40;;;8.00;14.50;;;;;;4994693;28;20528;-76
2023/01/17 14:49:04;;;;;;;8.33;8.13;;;7.90;14.30;;;;;;4977012;28;20499;-76
2023/01/17 14:51:33;;;;;;;9.00;8.30;;;7.80;14.30;;;;;;4994782;28;20504;-77
2023/01/17 14:54:01;;;;;;;8.13;7.77;;;7.90;15.10;;;;;;4994779;28;20424;-75
2023/01/17 14:56:29;;;;;;;8.60;8.20;;;7.90;14.30;;;;;;4977114;28;20765;-76
2023/01/17 14:59:05;;;;;;;8.80;8.40;;;7.80;14.30;;;;;;4994450;28;20782;-76
2023/01/17 15:01:32;;;;;;;8.83;8.43;;;7.90;14.40;;;;;;4994317;28;20413;-76
2023/01/17 15:03:58;;;;;;;8.63;8.13;;;7.90;15.00;;;;;;4994259;28;20468;-75
2023/01/17 15:06:37;;;;;;;8.60;8.10;;;8.00;14.40;;;;;;4994042;28;20936;-76
2023/01/17 15:09:18;;;;;;;9.07;8.60;;;8.10;15.30;;;;;;4976778;28;20270;-76
2023/01/17 15:11:47;;;;;;;8.93;8.53;;;8.10;14.70;;;;;;4994066;28;20449;-75
2023/01/17 15:14:21;;;;;;;9.23;8.57;;;8.20;14.50;;;;;;4994576;28;20923;-76
2023/01/17 15:16:47;;;;;;;9.53;8.73;;;8.20;14.50;;;;;;4993097;28;20591;-75
2023/01/17 15:19:14;;;;;;;10.73;10.13;;;8.20;14.30;;;;;;4994076;28;20460;-75
2023/01/17 15:21:42;;;;;;;10.67;9.90;;;8.10;14.40;;;;;;4993986;28;20648;-75
2023/01/17 15:24:24;;;;;;;10.10;9.50;;;8.10;14.50;;;;;;4993725;28;20473;-76
2023/01/17 15:26:49;;;;;;;8.97;8.57;;;8.10;14.40;;;;;;4993664;28;20461;-76
2023/01/17 15:29:29;;;;;;;9.20;8.70;;;8.00;14.40;;;;;;4994050;28;20960;-76
2023/01/17 15:32:03;;;;;;;12.00;11.20;;;8.10;14.40;;;;;;4976473;28;20189;-75
2023/01/17 15:34:35;;;;;;;10.40;9.70;;;8.10;14.50;;;;;;4987175;28;20420;-77
2023/01/17 15:37:20;;;;;;;9.37;8.87;;;8.10;14.50;;;;;;4976685;28;20426;-76
2023/01/17 15:39:46;;;;;;;9.07;8.57;;;8.10;14.50;;;;;;4988032;28;20413;-75
2023/01/17 15:42:24;;;;;;;9.93;9.13;;;8.20;14.10;;;;;;4993527;28;20424;-76
2023/01/17 15:44:56;;;;;;;10.07;9.47;;;8.30;14.00;;;;;;4994274;28;20425;-76
2023/01/17 15:47:34;;;;;;;9.70;9.20;;;8.40;14.30;;;;;;4993714;28;20401;-75
2023/01/17 15:50:01;;;;;;;9.40;8.80;;;8.20;13.90;;;;;;4976422;28;20413;-75
2023/01/17 15:52:27;;;;;;;10.40;9.80;;;8.20;13.60;;;;;;4993387;28;20405;-75
2023/01/17 15:54:58;;;;;;;9.87;9.13;;;8.10;14.00;;;;;;4993495;28;20456;-76
2023/01/17 15:57:37;;;;;;;9.67;9.17;;;8.00;13.80;;;;;;4993252;28;20409;-76
2023/01/17 16:00:11;;;;;;;10.00;9.50;;;7.90;14.30;;;;;;4992492;28;20415;-76
2023/01/17 16:02:50;;;;;;;10.73;10.13;;;7.90;14.30;;;;;;4993192;28;20413;-76
2023/01/17 16:05:32;;;;;;;9.67;9.10;;;7.90;14.30;;;;;;4993813;28;20511;-75
2023/01/17 16:08:00;;;;;;;10.53;9.63;;;7.90;14.30;;;;;;5001700;28;20413;-75
2023/01/17 16:10:30;;;;;;;10.60;9.90;;;7.80;13.90;;;;;;5000647;28;20437;-75
2023/01/17 16:12:56;;;;;;;10.50;9.90;;;7.80;14.30;;;;;;4981970;28;20500;-76
2023/01/17 16:15:23;;;;;;;11.77;10.97;;;7.60;14.10;;;;;;5005996;28;20468;-76
2023/01/17 16:17:51;;;;;;;11.23;9.80;;;7.50;14.40;;;;;;5014472;28;20428;-74
2023/01/17 16:20:20;;;;;;;10.63;10.03;;;7.50;14.60;;;;;;5015310;28;20408;-75
2023/01/17 16:22:46;;;;;;;9.80;9.20;;;7.60;14.80;;;;;;5014826;28;20460;-75
2023/01/17 16:25:31;;;;;;;10.30;9.50;;;7.80;14.50;;;;;;5015437;28;20453;-74
2023/01/17 16:27:58;;;;;;;10.83;10.23;;;7.70;14.70;;;;;;5016192;28;20421;-76
2023/01/17 16:30:24;;;;;;;10.80;10.10;;;7.70;14.60;;;;;;5013809;28;20421;-75
2023/01/17 16:32:50;;;;;;;10.90;10.20;;;7.70;14.90;;;;;;5001219;28;20409;-75
2023/01/17 16:35:23;;;;;;;10.80;10.20;;;7.60;14.80;;;;;;5015367;28;20425;-75
2023/01/17 16:38:03;;;;;;;9.83;9.10;;;7.60;15.00;;;;;;5017591;28;20437;-76
2023/01/17 16:40:32;;;;;;;10.73;9.93;;;7.60;15.10;;;;;;5002894;28;20463;-75
2023/01/17 16:42:59;;;;;;;11.80;10.63;;;7.70;14.90;;;;;;5017968;28;20484;-75
2023/01/17 16:45:25;;;;;;;12.10;11.03;;;7.70;14.90;;;;;;4985522;28;20472;-75
2023/01/17 16:47:52;;;;;;;10.70;9.90;;;7.70;15.00;;;;;;5017125;28;20424;-76
2023/01/17 16:50:22;;;;;;;11.47;10.50;;;7.60;15.10;;;;;;5027896;28;20455;-75
2023/01/17 16:52:52;;;;;;;12.13;11.33;;;7.70;15.10;;;;;;5030344;28;20455;-76
2023/01/17 16:55:23;;;;;;;64.47;59.27;;;7.70;14.90;;;;;;5018908;28;20459;-76
2023/01/17 16:57:50;;;;;;;13.27;12.47;;;7.80;15.10;;;;;;5002990;28;20431;-76
2023/01/17 17:00:16;;;;;;;12.17;11.37;;;7.80;15.10;;;;;;5024670;28;20413;-76
2023/01/17 17:02:42;;;;;;;12.47;11.37;;;7.60;15.20;;;;;;5035037;28;20435;-75
2023/01/17 17:05:08;;;;;;;12.63;11.63;;;7.60;15.30;;;;;;5025648;28;20468;-76
2023/01/17 17:07:45;;;;;;;12.47;11.30;;;7.50;14.80;;;;;;5018297;28;20235;-75
2023/01/17 17:10:18;;;;;;;11.20;10.40;;;7.50;15.10;;;;;;5017776;28;20416;-74
2023/01/17 17:12:44;;;;;;;11.93;10.97;;;7.50;15.30;;;;;;5017732;28;20462;-75
2023/01/17 17:15:11;;;;;;;11.13;10.33;;;7.50;14.90;;;;;;5016031;28;20456;-76
2023/01/17 17:17:41;;;;;;;12.17;10.93;;;7.60;15.40;;;;;;5016609;28;20227;-75
2023/01/17 17:20:10;;;;;;;11.43;10.50;;;7.70;15.20;;;;;;5016051;28;20416;-75
2023/01/17 17:22:36;;;;;;;10.13;9.33;;;7.50;15.50;;;;;;5015283;28;20435;-75
2023/01/17 17:25:02;;;;;;;11.17;10.47;;;7.20;16.40;;;;;;5015071;28;20432;-76
2023/01/17 17:27:27;;;;;;;10.80;10.00;;;7.30;16.90;;;;;;5015451;28;20205;-76
2023/01/17 17:29:53;;;;;;;10.83;10.13;;;7.30;17.20;;;;;;5015764;28;20419;-76
2023/01/17 17:32:20;;;;;;;10.87;10.07;;;6.90;18.90;;;;;;5015835;28;20194;-75
2023/01/17 17:34:45;;;;;;;12.00;11.23;;;6.70;20.10;;;;;;5014778;28;20244;-74
2023/01/17 17:37:12;;;;;;;10.80;10.23;;;6.70;20.60;;;;;;4997680;28;20429;-75
2023/01/17 17:39:38;;;;;;;11.93;11.10;;;6.90;21.30;;;;;;4997907;28;20281;-75
2023/01/17 17:42:04;;;;;;;10.83;10.13;;;6.90;22.00;;;;;;5015925;28;20456;-75
2023/01/17 17:44:30;;;;;;;11.77;11.07;;;6.80;23.60;;;;;;5015439;28;20213;-75
2023/01/17 17:46:55;;;;;;;11.67;10.87;;;6.80;23.90;;;;;;4997974;28;20968;-75
2023/01/17 17:49:21;;;;;;;15.37;11.40;;;6.60;26.20;;;;;;5015466;28;20595;-75
2023/01/17 17:51:47;;;;;;;12.10;11.20;;;6.30;27.50;;;;;;5015284;28;20698;-75
2023/01/17 17:54:14;;;;;;;12.70;11.67;;;6.20;28.70;;;;;;5013915;28;20663;-76
2023/01/17 17:56:45;;;;;;;12.37;11.43;;;6.20;28.90;;;;;;5015013;28;20622;-75
2023/01/17 17:59:13;;;;;;;11.07;10.27;;;6.30;29.10;;;;;;5015239;28;20416;-74
2023/01/17 18:01:39;;;;;;;11.07;10.43;;;6.30;30.20;;;;;;5014916;28;20416;-76
2023/01/17 18:04:06;;;;;;;12.37;11.60;;;6.40;30.70;;;;;;4995400;28;20500;-76
2023/01/17 18:06:33;;;;;;;11.37;10.67;;;6.30;31.10;;;;;;5017637;28;20475;-75
2023/01/17 18:08:59;;;;;;;11.27;10.57;;;6.30;32.30;;;;;;5013962;28;20558;-76
2023/01/17 18:11:27;;;;;;;12.73;11.83;;;6.40;31.60;;;;;;5013317;28;20435;-76
2023/01/17 18:13:54;;;;;;;12.23;11.27;;;6.20;32.30;;;;;;5009627;28;20519;-77
2023/01/17 18:16:29;;;;;;;11.70;11.00;;;6.00;33.80;;;;;;5015604;28;20460;-74
2023/01/17 18:18:55;;;;;;;12.33;11.20;;;6.20;32.70;;;;;;5014384;28;20864;-75
2023/01/17 18:21:33;;;;;;;11.90;11.00;;;6.50;32.10;;;;;;5014296;28;20954;-76
2023/01/17 18:24:03;;;;;;;12.17;11.27;;;6.60;30.90;;;;;;5014819;28;20555;-75
2023/01/17 18:26:34;;;;;;;12.03;11.23;;;6.40;32.20;;;;;;5014112;28;20456;-76
2023/01/17 18:29:01;;;;;;;12.47;11.47;;;6.30;32.00;;;;;;5015620;28;20785;-77
2023/01/17 18:31:28;;;;;;;11.17;10.47;;;6.20;32.80;;;;;;5012994;28;20420;-75
2023/01/17 18:33:56;;;;;;;12.47;11.63;;;6.20;33.40;;;;;;5014488;28;20470;-76
2023/01/17 18:36:22;;;;;;;13.07;12.17;;;6.00;34.00;;;;;;5013405;28;20448;-76
2023/01/17 18:38:48;;;;;;;12.23;11.53;;;5.90;34.60;;;;;;5014576;28;20416;-76
2023/01/17 18:41:17;;;;;;;12.00;11.23;;;5.90;35.00;;;;;;5012819;28;20502;-76
2023/01/17 18:43:42;;;;;;;12.10;11.30;;;6.00;34.90;;;;;;5014100;28;20525;-75
2023/01/17 18:46:09;;;;;;;13.60;12.50;;;6.20;34.20;;;;;;5012199;28;20460;-75
2023/01/17 18:48:36;;;;;;;12.10;11.40;;;6.30;33.50;;;;;;5015267;28;20193;-74
2023/01/17 18:51:05;;;;;;;11.93;11.03;;;6.40;32.90;;;;;;4996237;28;20420;-74
2023/01/17 18:53:32;;;;;;;12.00;11.20;;;6.50;32.20;;;;;;5018027;28;20518;-76
2023/01/17 18:56:00;;;;;;;12.07;11.27;;;6.60;31.90;;;;;;5015255;28;20961;-74
2023/01/17 18:58:27;;;;;;;12.53;11.70;;;6.70;32.10;;;;;;5032496;28;20919;-75
2023/01/17 19:00:53;;;;;;;12.73;11.83;;;6.70;31.70;;;;;;5032279;28;20424;-74
2023/01/17 19:03:24;;;;;;;12.60;11.80;;;6.70;31.50;;;;;;5032671;28;21020;-74
2023/01/17 19:05:50;;;;;;;12.60;11.80;;;6.70;32.10;;;;;;5029989;28;20447;-75
2023/01/17 19:08:16;;;;;;;10.67;10.07;;;6.60;32.20;;;;;;5013390;28;20428;-75
2023/01/17 19:10:42;;;;;;;11.20;10.57;;;6.50;32.90;;;;;;5013971;28;20184;-75
2023/01/17 19:13:09;;;;;;;11.57;10.87;;;6.60;32.20;;;;;;5020212;28;20433;-75
2023/01/17 19:15:35;;;;;;;11.50;10.80;;;6.70;32.10;;;;;;5016617;28;20447;-76
2023/01/17 19:18:02;;;;;;;11.43;10.53;;;6.70;31.10;;;;;;4996583;28;20507;-76
2023/01/17 19:20:29;;;;;;;11.00;10.30;;;6.70;31.00;;;;;;4995110;28;20642;-75
2023/01/17 19:22:54;;;;;;;10.63;10.03;;;6.70;31.40;;;;;;5012956;28;20547;-74
2023/01/17 19:25:21;;;;;;;11.30;10.70;;;6.70;31.50;;;;;;5013009;28;20523;-76
2023/01/17 19:27:47;;;;;;;12.87;11.87;;;6.70;31.50;;;;;;5012415;28;20202;-75
2023/01/17 19:30:12;;;;;;;12.37;11.57;;;6.70;31.80;;;;;;5012074;28;20791;-75
2023/01/17 19:32:38;;;;;;;12.83;11.93;;;6.70;32.10;;;;;;5015375;28;20619;-76
2023/01/17 19:35:04;;;;;;;12.70;11.90;;;6.70;32.20;;;;;;5012484;28;20236;-76
2023/01/17 19:37:30;;;;;;;12.60;11.90;;;6.70;32.00;;;;;;4994460;28;20193;-75
2023/01/17 19:39:55;;;;;;;11.20;10.53;;;6.80;31.70;;;;;;5012935;28;20451;-76
2023/01/17 19:42:21;;;;;;;11.30;10.50;;;6.80;31.80;;;;;;5012810;28;20547;-75
2023/01/17 19:44:47;;;;;;;11.10;10.50;;;6.80;32.20;;;;;;5019521;28;20639;-74
2023/01/17 19:47:12;;;;;;;10.73;10.13;;;6.70;32.20;;;;;;5012691;28;20682;-75
2023/01/17 19:49:41;;;;;;;10.77;10.17;;;6.70;32.20;;;;;;5013014;28;20264;-76
2023/01/17 19:52:06;;;;;;;11.10;10.37;;;6.70;32.00;;;;;;5017589;28;20706;-76
2023/01/17 19:54:32;;;;;;;10.67;10.07;;;6.70;32.50;;;;;;5012647;28;20507;-77
2023/01/17 19:56:57;;;;;;;11.40;10.73;;;6.50;32.20;;;;;;5012581;28;20282;-75
2023/01/17 19:59:23;;;;;;;10.67;10.07;;;6.40;32.90;;;;;;5012572;28;20200;-76
2023/01/17 20:01:48;;;;;;;11.07;10.40;;;6.40;33.00;;;;;;5013110;28;20190;-76
2023/01/17 20:04:16;;;;;;;11.20;10.57;;;6.50;32.70;;;;;;5011080;28;20216;-76
2023/01/17 20:06:42;;;;;;;12.17;11.37;;;6.50;32.50;;;;;;5019054;28;20205;-75
2023/01/17 20:09:08;;;;;;;11.70;10.93;;;6.50;33.00;;;;;;5012408;28;20416;-75
2023/01/17 20:11:33;;;;;;;12.20;11.50;;;6.50;33.00;;;;;;5012604;28;20507;-76
2023/01/17 20:13:59;;;;;;;12.10;11.40;;;6.50;33.10;;;;;;5012576;28;20252;-75
2023/01/17 20:16:27;;;;;;;12.33;11.47;;;6.30;32.90;;;;;;5012250;28;20201;-77
2023/01/17 20:18:53;;;;;;;11.37;10.67;;;6.10;34.60;;;;;;5012707;28;20448;-77
2023/01/17 20:21:24;;;;;;;11.83;11.13;;;6.20;34.70;;;;;;5012028;28;20937;-76
2023/01/17 20:23:51;;;;;;;11.23;10.50;;;6.30;34.20;;;;;;5011846;28;20225;-76
2023/01/17 20:26:22;;;;;;;11.07;10.30;;;6.50;33.70;;;;;;5010777;28;20487;-77
2023/01/17 20:28:50;;;;;;;12.63;11.83;;;6.60;33.40;;;;;;5011719;28;21231;-76
2023/01/17 20:31:23;;;;;;;11.87;11.27;;;6.70;32.80;;;;;;5012395;28;20478;-76
2023/01/17 20:33:51;;;;;;;11.50;10.80;;;6.80;32.50;;;;;;5020037;28;20471;-74
2023/01/17 20:36:18;;;;;;;11.60;10.80;;;6.80;32.00;;;;;;5022848;28;20446;-75
2023/01/17 20:38:45;;;;;;;11.33;10.73;;;6.90;31.70;;;;;;5017767;28;20514;-75
2023/01/17 20:41:22;;;;;;;11.90;11.23;;;6.80;31.90;;;;;;4993989;28;20499;-76
2023/01/17 20:43:51;;;;;;;11.10;10.50;;;6.80;32.10;;;;;;5017529;28;20487;-74
2023/01/17 20:46:18;;;;;;;11.33;10.73;;;6.80;32.30;;;;;;5020804;28;20843;-75
2023/01/17 20:48:50;;;;;;;11.57;10.97;;;6.80;31.90;;;;;;5022061;28;20427;-74
2023/01/17 20:51:16;;;;;;;11.70;10.97;;;6.90;32.00;;;;;;5022850;28;20412;-75
2023/01/17 20:53:44;;;;;;;11.97;11.33;;;6.90;32.40;;;;;;5022025;28;20455;-75
2023/01/17 20:56:12;;;;;;;12.13;11.43;;;6.90;31.80;;;;;;5025680;28;20488;-74
2023/01/17 20:58:38;;;;;;;11.47;10.87;;;6.80;31.80;;;;;;5021884;28;20773;-74
2023/01/17 21:01:05;;;;;;;11.20;10.60;;;6.70;32.50;;;;;;5023673;28;21777;-74
2023/01/17 21:03:33;;;;;;;11.33;10.77;;;6.70;32.50;;;;;;5021527;28;20460;-75
2023/01/17 21:06:07;;;;;;;11.33;10.60;;;6.70;32.30;;;;;;5015599;28;20504;-76
2023/01/17 21:08:36;;;;;;;12.67;11.87;;;6.70;32.50;;;;;;5019575;28;20430;-75
2023/01/17 21:11:02;;;;;;;10.93;10.33;;;6.80;32.20;;;;;;5015141;28;20423;-76
2023/01/17 21:13:28;;;;;;;11.23;10.63;;;6.70;32.00;;;;;;5013168;28;20416;-76
2023/01/17 21:15:54;;;;;;;12.00;11.27;;;6.60;31.70;;;;;;4993986;28;20459;-74
2023/01/17 21:18:21;;;;;;;11.87;11.23;;;6.60;32.30;;;;;;5011628;28;20581;-75
2023/01/17 21:20:47;;;;;;;12.50;11.70;;;6.60;32.40;;;;;;5011193;28;20553;-74
2023/01/17 21:23:19;;;;;;;13.10;12.20;;;6.60;32.50;;;;;;5012359;28;20464;-76
2023/01/17 21:25:55;;;;;;;12.10;11.20;;;6.60;32.40;;;;;;5015558;28;20519;-76
2023/01/17 21:28:26;;;;;;;12.13;11.43;;;6.60;31.90;;;;;;5015417;28;20495;-75
2023/01/17 21:30:52;;;;;;;11.57;10.97;;;6.40;32.90;;;;;;5013597;28;20471;-76
2023/01/17 21:33:18;;;;;;;12.37;11.43;;;6.20;34.10;;;;;;4997575;28;20444;-76
2023/01/17 21:35:44;;;;;;;12.50;11.70;;;6.30;33.10;;;;;;5016201;28;20526;-76
2023/01/17 21:38:10;;;;;;;12.20;11.47;;;6.30;33.30;;;;;;5014275;28;20466;-76
2023/01/17 21:40:35;;;;;;;11.67;10.97;;;6.30;32.90;;;;;;5015320;28;20189;-76
2023/01/17 21:43:01;;;;;;;12.07;11.47;;;6.30;33.10;;;;;;5013420;28;20812;-76
2023/01/17 21:45:30;;;;;;;12.07;11.20;;;6.30;32.40;;;;;;5014967;28;20619;-76
2023/01/17 21:47:56;;;;;;;11.47;10.80;;;6.30;33.20;;;;;;5014839;28;20543;-77
2023/01/17 21:50:22;;;;;;;11.77;11.00;;;6.30;32.70;;;;;;5013349;28;20516;-75
2023/01/17 21:52:47;;;;;;;11.07;10.53;;;6.30;32.60;;;;;;5014482;28;20856;-76
2023/01/17 22:00:42;;;;;;;11.03;10.47;;;6.30;33.10;;;;;;5008318;28;20470;-75
2023/01/17 22:03:08;;;;;;;11.90;11.30;;;6.40;32.80;;;;;;5013999;28;20460;-76
2023/01/17 22:05:34;;;;;;;11.60;10.90;;;6.40;32.60;;;;;;5014113;28;20424;-74
2023/01/17 22:08:11;;;;;;;12.57;11.87;;;6.40;32.20;;;;;;5013340;28;20181;-76
2023/01/17 22:10:43;;;;;;;11.90;11.30;;;6.40;32.80;;;;;;5013053;28;20470;-76
2023/01/17 22:13:18;;;;;;;12.13;11.43;;;6.30;33.60;;;;;;5013047;28;20456;-76
2023/01/17 22:15:44;;;;;;;12.60;11.80;;;6.30;33.50;;;;;;5012962;28;20494;-76
2023/01/17 22:18:11;;;;;;;12.77;11.97;;;6.40;33.20;;;;;;5014918;28;20404;-75
2023/01/17 22:20:41;;;;;;;12.10;11.40;;;6.40;33.10;;;;;;5012844;28;20224;-77
2023/01/17 22:23:07;;;;;;;13.80;12.93;;;6.50;32.90;;;;;;5014439;28;20803;-77
2023/01/17 22:25:34;;;;;;;13.30;12.60;;;6.50;32.80;;;;;;4997221;28;20432;-77
2023/01/17 22:28:01;;;;;;;12.20;11.60;;;6.60;32.50;;;;;;5016994;28;20412;-76
2023/01/17 22:30:26;;;;;;;11.97;11.27;;;6.50;32.30;;;;;;5013926;28;20417;-75
2023/01/17 22:32:54;;;;;;;13.27;12.57;;;6.50;32.20;;;;;;5013286;28;20496;-77
2023/01/17 22:35:20;;;;;;;12.53;11.87;;;6.50;32.40;;;;;;5012522;28;20256;-76
2023/01/17 22:37:46;;;;;;;13.13;12.53;;;6.40;33.20;;;;;;4997678;28;20454;-76
2023/01/17 22:40:12;;;;;;;12.53;11.93;;;6.30;32.70;;;;;;4975953;28;20190;-75
2023/01/17 22:42:38;;;;;;;12.10;11.50;;;6.30;32.70;;;;;;4991844;28;20417;-74
2023/01/17 22:45:05;;;;;;;12.67;11.93;;;6.30;32.80;;;;;;4992996;28;20319;-76
2023/01/17 22:47:31;;;;;;;12.53;11.83;;;6.30;32.70;;;;;;4993993;28;20421;-76
2023/01/17 22:49:57;;;;;;;12.43;11.80;;;6.40;33.20;;;;;;4975311;28;20413;-75
2023/01/17 22:52:23;;;;;;;13.17;12.47;;;6.30;32.50;;;;;;4992937;28;20413;-75
2023/01/17 22:54:49;;;;;;;11.60;11.00;;;6.30;32.80;;;;;;4975341;28;20427;-76
2023/01/17 22:57:14;;;;;;;11.60;11.10;;;6.30;32.70;;;;;;4991852;28;20208;-76
2023/01/17 22:59:40;;;;;;;11.33;10.80;;;6.30;32.80;;;;;;4992157;28;20417;-77
2023/01/17 23:02:05;;;;;;;10.63;10.13;;;6.30;32.80;;;;;;4992405;28;20257;-76
2023/01/17 23:04:31;;;;;;;11.97;11.40;;;6.30;32.80;;;;;;4993311;28;20260;-76
2023/01/17 23:06:56;;;;;;;12.00;11.40;;;6.30;33.40;;;;;;4998329;28;20863;-76
2023/01/17 23:09:22;;;;;;;11.73;11.17;;;6.20;33.50;;;;;;4988852;28;20182;-75
2023/01/17 23:11:51;;;;;;;12.37;11.67;;;6.10;34.40;;;;;;4991568;28;20182;-75
2023/01/17 23:14:21;;;;;;;12.50;11.90;;;6.20;33.80;;;;;;4989687;28;20204;-76
2023/01/17 23:19:48;;;;;;;12.43;11.77;;;6.40;33.10;;;;;;4991756;28;20404;-75
2023/01/17 23:22:23;;;;;;;12.90;12.20;;;6.30;32.90;;;;;;4990806;28;20440;-75
2023/01/17 23:25:00;;;;;;;13.53;12.73;;;6.40;33.00;;;;;;4991031;28;20830;-78
2023/01/17 23:28:10;;;;;;;12.10;11.60;;;6.50;32.50;;;;;;5006064;28;20493;-75
2023/01/17 23:30:38;;;;;;;12.63;11.97;;;6.40;31.70;;;;;;5010620;28;20490;-76
2023/01/17 23:33:12;;;;;;;12.97;12.37;;;6.30;32.10;;;;;;5010341;28;20463;-74
2023/01/17 23:35:41;;;;;;;12.90;12.30;;;6.30;32.30;;;;;;5010583;28;20842;-76
2023/01/17 23:38:25;;;;;;;12.10;11.60;;;6.30;32.60;;;;;;5009545;28;20424;-75
2023/01/17 23:43:36;;;;;;;12.73;12.13;;;6.40;32.60;;;;;;5010175;28;20482;-76
2023/01/17 23:46:03;;;;;;;11.70;10.93;;;6.40;32.60;;;;;;5009852;28;20424;-75
2023/01/17 23:48:29;;;;;;;12.40;11.80;;;6.40;32.50;;;;;;5010620;28;20436;-74
2023/01/17 23:51:00;;;;;;;13.60;13.00;;;6.30;33.20;;;;;;4992597;28;21118;-75
2023/01/17 23:53:26;;;;;;;13.20;12.60;;;6.30;33.10;;;;;;5011018;28;20182;-74
2023/01/17 23:55:53;;;;;;;12.57;11.97;;;6.20;32.90;;;;;;5010235;28;20440;-75
2023/01/17 23:58:21;;;;;;;14.13;13.43;;;6.30;33.10;;;;;;5009833;28;20949;-75
